Port Graham, Alaska
Current Conditions -  °F | °C
As of 4:53 PM on Sunday 23 Nov 2014 (Local Time) from PAHO Reporting Station
Clear Clear  
Wind Chill: 35°   Ceiling: Unl
Heat Index: 39°   Visibility: 10mi
Dew Point: 35°   Wind: 6mph
Humidity: 86%   Direction: 50°NE
Pressure: 29.44"   Gusts: NA
Location:  59.7153°N, 150.773°W
Report Text: PAHO 240153Z 05005KT 10SM CLR 04/02 A2944 RMK AO2 SLP969 T00390017
Loading
Personal Weather Stations






























Interactive Weather Map New forecast layout! Learn more

10-Day Weather Forecast

Advertisements
Track Severe Weather on mobile